sensor_id;sensor_type;location;lat;lon;timestamp;temperature;humidity
5828;DHT22;42583;50.240;8.444;2023-06-14T00:01:07;17.80;38.00
5828;DHT22;42583;50.240;8.444;2023-06-14T00:16:09;17.60;37.90
5828;DHT22;42583;50.240;8.444;2023-06-14T00:31:10;17.50;38.20
5828;DHT22;42583;50.240;8.444;2023-06-14T00:46:10;17.40;38.40
5828;DHT22;42583;50.240;8.444;2023-06-14T01:01:11;17.20;38.80
5828;DHT22;42583;50.240;8.444;2023-06-14T01:16:12;17.10;38.70
5828;DHT22;42583;50.240;8.444;2023-06-14T01:31:12;17.00;39.20
5828;DHT22;42583;50.240;8.444;2023-06-14T01:46:16;16.90;39.20
5828;DHT22;42583;50.240;8.444;2023-06-14T02:01:16;16.80;39.70
5828;DHT22;42583;50.240;8.444;2023-06-14T02:16:17;16.60;40.10
5828;DHT22;42583;50.240;8.444;2023-06-14T02:31:17;16.40;40.50
5828;DHT22;42583;50.240;8.444;2023-06-14T02:46:18;16.30;40.90
5828;DHT22;42583;50.240;8.444;2023-06-14T03:01:19;15.90;41.70
5828;DHT22;42583;50.240;8.444;2023-06-14T03:16:21;15.70;41.70
5828;DHT22;42583;50.240;8.444;2023-06-14T03:31:22;15.50;42.80
5828;DHT22;42583;50.240;8.444;2023-06-14T03:46:24;15.20;43.30
5828;DHT22;42583;50.240;8.444;2023-06-14T04:01:24;15.00;44.40
5828;DHT22;42583;50.240;8.444;2023-06-14T04:16:27;14.80;45.30
5828;DHT22;42583;50.240;8.444;2023-06-14T04:31:31;14.60;45.90
5828;DHT22;42583;50.240;8.444;2023-06-14T04:46:38;14.60;46.60
5828;DHT22;42583;50.240;8.444;2023-06-14T05:01:46;14.50;46.90
5828;DHT22;42583;50.240;8.444;2023-06-14T05:16:49;14.60;46.90
5828;DHT22;42583;50.240;8.444;2023-06-14T05:31:50;14.60;47.40
5828;DHT22;42583;50.240;8.444;2023-06-14T05:46:51;14.70;48.20
5828;DHT22;42583;50.240;8.444;2023-06-14T06:01:52;14.80;48.60
5828;DHT22;42583;50.240;8.444;2023-06-14T06:16:53;15.10;48.70
5828;DHT22;42583;50.240;8.444;2023-06-14T06:31:53;15.40;48.80
5828;DHT22;42583;50.240;8.444;2023-06-14T06:46:54;15.70;48.60
5828;DHT22;42583;50.240;8.444;2023-06-14T07:01:55;16.20;48.30
5828;DHT22;42583;50.240;8.444;2023-06-14T07:16:55;16.70;47.90
5828;DHT22;42583;50.240;8.444;2023-06-14T07:31:56;17.20;47.60
5828;DHT22;42583;50.240;8.444;2023-06-14T07:46:56;17.50;47.20
5828;DHT22;42583;50.240;8.444;2023-06-14T08:01:59;18.10;47.10
5828;DHT22;42583;50.240;8.444;2023-06-14T08:17:00;18.40;47.40
5828;DHT22;42583;50.240;8.444;2023-06-14T08:32:00;18.40;46.30
5828;DHT22;42583;50.240;8.444;2023-06-14T08:47:02;18.90;45.50
5828;DHT22;42583;50.240;8.444;2023-06-14T09:02:05;19.40;43.90
5828;DHT22;42583;50.240;8.444;2023-06-14T09:17:06;19.70;43.20
5828;DHT22;42583;50.240;8.444;2023-06-14T09:32:07;20.20;43.20
5828;DHT22;42583;50.240;8.444;2023-06-14T09:47:07;20.60;42.40
5828;DHT22;42583;50.240;8.444;2023-06-14T10:02:20;20.80;42.20
5828;DHT22;42583;50.240;8.444;2023-06-14T10:33:07;22.10;40.70
5828;DHT22;42583;50.240;8.444;2023-06-14T10:48:31;22.50;39.50
5828;DHT22;42583;50.240;8.444;2023-06-14T11:03:46;22.40;39.70
5828;DHT22;42583;50.240;8.444;2023-06-14T11:18:50;22.80;39.20
5828;DHT22;42583;50.240;8.444;2023-06-14T11:33:53;22.40;39.00
5828;DHT22;42583;50.240;8.444;2023-06-14T11:48:54;22.60;39.20
5828;DHT22;42583;50.240;8.444;2023-06-14T12:03:55;22.40;39.70
5828;DHT22;42583;50.240;8.444;2023-06-14T12:18:56;21.70;39.20
5828;DHT22;42583;50.240;8.444;2023-06-14T12:34:00;22.70;39.70
5828;DHT22;42583;50.240;8.444;2023-06-14T12:49:01;22.90;38.70
5828;DHT22;42583;50.240;8.444;2023-06-14T13:04:01;23.80;38.30
5828;DHT22;42583;50.240;8.444;2023-06-14T13:19:02;23.40;37.90
5828;DHT22;42583;50.240;8.444;2023-06-14T13:34:02;23.00;37.60
5828;DHT22;42583;50.240;8.444;2023-06-14T13:49:04;23.10;37.20
5828;DHT22;42583;50.240;8.444;2023-06-14T14:04:05;22.70;38.50
5828;DHT22;42583;50.240;8.444;2023-06-14T14:19:06;23.30;38.20
5828;DHT22;42583;50.240;8.444;2023-06-14T14:34:06;22.90;37.30
5828;DHT22;42583;50.240;8.444;2023-06-14T14:49:07;22.80;37.90
5828;DHT22;42583;50.240;8.444;2023-06-14T15:04:08;22.20;38.40
5828;DHT22;42583;50.240;8.444;2023-06-14T15:19:08;22.20;38.40
5828;DHT22;42583;50.240;8.444;2023-06-14T15:34:09;22.20;38.80
5828;DHT22;42583;50.240;8.444;2023-06-14T15:49:10;21.70;39.10
5828;DHT22;42583;50.240;8.444;2023-06-14T16:04:11;21.80;39.60
5828;DHT22;42583;50.240;8.444;2023-06-14T16:19:11;21.60;39.90
5828;DHT22;42583;50.240;8.444;2023-06-14T16:34:12;21.50;40.00
5828;DHT22;42583;50.240;8.444;2023-06-14T16:49:15;21.40;39.80
5828;DHT22;42583;50.240;8.444;2023-06-14T17:04:15;21.50;39.70
5828;DHT22;42583;50.240;8.444;2023-06-14T17:19:16;21.40;40.00
5828;DHT22;42583;50.240;8.444;2023-06-14T17:34:16;21.20;39.90
5828;DHT22;42583;50.240;8.444;2023-06-14T17:49:17;21.00;39.80
5828;DHT22;42583;50.240;8.444;2023-06-14T18:04:23;20.80;39.90
5828;DHT22;42583;50.240;8.444;2023-06-14T18:19:24;20.60;40.20
5828;DHT22;42583;50.240;8.444;2023-06-14T18:34:28;20.40;40.30
5828;DHT22;42583;50.240;8.444;2023-06-14T18:49:29;20.20;40.30
5828;DHT22;42583;50.240;8.444;2023-06-14T19:04:29;19.90;40.30
5828;DHT22;42583;50.240;8.444;2023-06-14T19:19:30;19.60;40.70
5828;DHT22;42583;50.240;8.444;2023-06-14T19:34:30;19.20;41.40
5828;DHT22;42583;50.240;8.444;2023-06-14T19:49:31;18.80;41.80
5828;DHT22;42583;50.240;8.444;2023-06-14T20:04:32;18.50;42.40
5828;DHT22;42583;50.240;8.444;2023-06-14T20:19:32;18.10;43.10
5828;DHT22;42583;50.240;8.444;2023-06-14T20:34:33;17.80;43.90
5828;DHT22;42583;50.240;8.444;2023-06-14T20:49:34;17.50;44.80
5828;DHT22;42583;50.240;8.444;2023-06-14T21:04:35;17.30;45.10
5828;DHT22;42583;50.240;8.444;2023-06-14T21:19:37;17.10;45.60
5828;DHT22;42583;50.240;8.444;2023-06-14T21:34:41;16.90;46.30
5828;DHT22;42583;50.240;8.444;2023-06-14T21:49:43;16.80;47.10
5828;DHT22;42583;50.240;8.444;2023-06-14T22:04:46;16.60;47.00
5828;DHT22;42583;50.240;8.444;2023-06-14T22:19:47;16.50;47.70
5828;DHT22;42583;50.240;8.444;2023-06-14T22:34:51;16.30;48.50
5828;DHT22;42583;50.240;8.444;2023-06-14T22:49:51;16.20;48.60
5828;DHT22;42583;50.240;8.444;2023-06-14T23:04:55;16.20;49.10
5828;DHT22;42583;50.240;8.444;2023-06-14T23:19:58;16.00;49.10
5828;DHT22;42583;50.240;8.444;2023-06-14T23:35:07;15.90;49.90
5828;DHT22;42583;50.240;8.444;2023-06-14T23:50:09;15.80;50.00
